sensor_id;sensor_type;location;lat;lon;timestamp;temperature;humidity
15131;DHT22;7666;50.920;4.628;2023-04-03T00:02:28;2.50;99.90
15131;DHT22;7666;50.920;4.628;2023-04-03T00:05:14;2.50;99.90
15131;DHT22;7666;50.920;4.628;2023-04-03T00:08:00;2.50;99.90
15131;DHT22;7666;50.920;4.628;2023-04-03T00:10:48;2.50;99.90
15131;DHT22;7666;50.920;4.628;2023-04-03T00:13:34;2.40;99.90
15131;DHT22;7666;50.920;4.628;2023-04-03T00:16:20;2.50;99.90
15131;DHT22;7666;50.920;4.628;2023-04-03T00:19:06;2.50;99.90
15131;DHT22;7666;50.920;4.628;2023-04-03T00:21:52;2.50;99.90
15131;DHT22;7666;50.920;4.628;2023-04-03T00:24:39;2.50;99.90
15131;DHT22;7666;50.920;4.628;2023-04-03T00:27:25;2.50;99.90
15131;DHT22;7666;50.920;4.628;2023-04-03T00:30:14;2.50;99.90
15131;DHT22;7666;50.920;4.628;2023-04-03T00:33:00;2.50;99.90
15131;DHT22;7666;50.920;4.628;2023-04-03T00:35:47;2.40;99.90
15131;DHT22;7666;50.920;4.628;2023-04-03T00:38:34;2.40;99.90
15131;DHT22;7666;50.920;4.628;2023-04-03T00:41:20;2.20;99.90
15131;DHT22;7666;50.920;4.628;2023-04-03T00:47:08;2.00;99.90
15131;DHT22;7666;50.920;4.628;2023-04-03T00:49:55;2.00;99.90
15131;DHT22;7666;50.920;4.628;2023-04-03T00:52:41;2.00;99.90
15131;DHT22;7666;50.920;4.628;2023-04-03T00:55:27;2.00;99.90
15131;DHT22;7666;50.920;4.628;2023-04-03T00:58:15;1.90;99.90
15131;DHT22;7666;50.920;4.628;2023-04-03T01:01:06;1.80;99.90
15131;DHT22;7666;50.920;4.628;2023-04-03T01:03:54;1.70;99.90
15131;DHT22;7666;50.920;4.628;2023-04-03T01:06:40;1.70;99.90
15131;DHT22;7666;50.920;4.628;2023-04-03T01:09:26;1.80;99.90
15131;DHT22;7666;50.920;4.628;2023-04-03T01:12:23;1.90;99.90
15131;DHT22;7666;50.920;4.628;2023-04-03T01:15:14;2.00;99.90
15131;DHT22;7666;50.920;4.628;2023-04-03T01:18:00;2.00;99.90
15131;DHT22;7666;50.920;4.628;2023-04-03T01:21:21;2.00;99.90
15131;DHT22;7666;50.920;4.628;2023-04-03T01:24:32;2.00;99.90
15131;DHT22;7666;50.920;4.628;2023-04-03T01:27:19;2.00;99.90
15131;DHT22;7666;50.920;4.628;2023-04-03T01:30:05;1.90;99.90
15131;DHT22;7666;50.920;4.628;2023-04-03T01:32:52;1.80;99.90
15131;DHT22;7666;50.920;4.628;2023-04-03T01:35:38;1.80;99.90
15131;DHT22;7666;50.920;4.628;2023-04-03T01:38:24;1.90;99.90
15131;DHT22;7666;50.920;4.628;2023-04-03T01:41:11;1.90;99.90
15131;DHT22;7666;50.920;4.628;2023-04-03T01:43:57;1.90;99.90
15131;DHT22;7666;50.920;4.628;2023-04-03T01:46:43;1.90;99.90
15131;DHT22;7666;50.920;4.628;2023-04-03T01:49:29;1.90;99.90
15131;DHT22;7666;50.920;4.628;2023-04-03T01:52:15;1.90;99.90
15131;DHT22;7666;50.920;4.628;2023-04-03T01:55:01;1.90;99.90
15131;DHT22;7666;50.920;4.628;2023-04-03T01:57:47;1.90;99.90
15131;DHT22;7666;50.920;4.628;2023-04-03T02:00:33;1.90;99.90
15131;DHT22;7666;50.920;4.628;2023-04-03T02:03:19;1.90;99.90
15131;DHT22;7666;50.920;4.628;2023-04-03T02:06:06;1.80;99.90
15131;DHT22;7666;50.920;4.628;2023-04-03T02:08:52;1.80;99.90
15131;DHT22;7666;50.920;4.628;2023-04-03T02:11:38;1.80;99.90
15131;DHT22;7666;50.920;4.628;2023-04-03T02:14:24;1.70;99.90
15131;DHT22;7666;50.920;4.628;2023-04-03T02:17:10;1.70;99.90
15131;DHT22;7666;50.920;4.628;2023-04-03T02:19:56;1.70;99.90
15131;DHT22;7666;50.920;4.628;2023-04-03T02:22:42;1.60;99.90
15131;DHT22;7666;50.920;4.628;2023-04-03T02:25:29;1.50;99.90
15131;DHT22;7666;50.920;4.628;2023-04-03T02:28:16;1.50;99.90
15131;DHT22;7666;50.920;4.628;2023-04-03T02:31:02;1.50;99.90
15131;DHT22;7666;50.920;4.628;2023-04-03T02:33:49;1.40;99.90
15131;DHT22;7666;50.920;4.628;2023-04-03T02:36:35;1.40;99.90
15131;DHT22;7666;50.920;4.628;2023-04-03T02:39:21;1.40;99.90
15131;DHT22;7666;50.920;4.628;2023-04-03T02:42:07;1.30;99.90
15131;DHT22;7666;50.920;4.628;2023-04-03T02:44:53;1.30;99.90
15131;DHT22;7666;50.920;4.628;2023-04-03T02:47:39;1.30;99.90
15131;DHT22;7666;50.920;4.628;2023-04-03T02:50:25;1.40;99.90
15131;DHT22;7666;50.920;4.628;2023-04-03T02:53:11;1.40;99.90
15131;DHT22;7666;50.920;4.628;2023-04-03T02:55:57;1.40;99.90
15131;DHT22;7666;50.920;4.628;2023-04-03T02:58:44;1.50;99.90
15131;DHT22;7666;50.920;4.628;2023-04-03T03:01:30;1.50;99.90
15131;DHT22;7666;50.920;4.628;2023-04-03T03:04:18;1.60;99.90
15131;DHT22;7666;50.920;4.628;2023-04-03T03:07:04;1.60;99.90
15131;DHT22;7666;50.920;4.628;2023-04-03T03:09:50;1.60;99.90
15131;DHT22;7666;50.920;4.628;2023-04-03T03:12:36;1.50;99.90
15131;DHT22;7666;50.920;4.628;2023-04-03T03:15:22;1.50;99.90
15131;DHT22;7666;50.920;4.628;2023-04-03T03:18:08;1.40;99.90
15131;DHT22;7666;50.920;4.628;2023-04-03T03:20:55;1.30;99.90
15131;DHT22;7666;50.920;4.628;2023-04-03T03:23:42;1.20;99.90
15131;DHT22;7666;50.920;4.628;2023-04-03T03:26:28;1.20;99.90
15131;DHT22;7666;50.920;4.628;2023-04-03T03:29:14;1.20;99.90
15131;DHT22;7666;50.920;4.628;2023-04-03T03:32:00;1.20;99.90
15131;DHT22;7666;50.920;4.628;2023-04-03T03:34:46;1.20;99.90
15131;DHT22;7666;50.920;4.628;2023-04-03T03:37:32;1.20;99.90
15131;DHT22;7666;50.920;4.628;2023-04-03T03:40:18;1.20;99.90
15131;DHT22;7666;50.920;4.628;2023-04-03T03:43:04;1.20;99.90
15131;DHT22;7666;50.920;4.628;2023-04-03T03:45:54;1.30;99.90
15131;DHT22;7666;50.920;4.628;2023-04-03T03:48:40;1.30;99.90
15131;DHT22;7666;50.920;4.628;2023-04-03T03:51:26;1.30;99.90
15131;DHT22;7666;50.920;4.628;2023-04-03T03:54:12;1.30;99.90
15131;DHT22;7666;50.920;4.628;2023-04-03T03:56:59;1.30;99.90
15131;DHT22;7666;50.920;4.628;2023-04-03T03:59:45;1.30;99.90
15131;DHT22;7666;50.920;4.628;2023-04-03T04:02:31;1.30;99.90
15131;DHT22;7666;50.920;4.628;2023-04-03T04:05:17;1.30;99.90
15131;DHT22;7666;50.920;4.628;2023-04-03T04:08:03;1.30;99.90
15131;DHT22;7666;50.920;4.628;2023-04-03T04:10:49;1.30;99.90
15131;DHT22;7666;50.920;4.628;2023-04-03T04:13:35;1.20;99.90
15131;DHT22;7666;50.920;4.628;2023-04-03T04:16:21;1.20;99.90
15131;DHT22;7666;50.920;4.628;2023-04-03T04:19:07;1.20;99.90
15131;DHT22;7666;50.920;4.628;2023-04-03T04:21:54;1.20;99.90
15131;DHT22;7666;50.920;4.628;2023-04-03T04:24:40;1.10;99.90
15131;DHT22;7666;50.920;4.628;2023-04-03T04:27:26;1.10;99.90
15131;DHT22;7666;50.920;4.628;2023-04-03T04:30:12;1.10;99.90
15131;DHT22;7666;50.920;4.628;2023-04-03T04:32:58;1.10;99.90
15131;DHT22;7666;50.920;4.628;2023-04-03T04:35:47;1.10;99.90
15131;DHT22;7666;50.920;4.628;2023-04-03T04:38:34;1.10;99.90
15131;DHT22;7666;50.920;4.628;2023-04-03T04:41:21;1.00;99.90
15131;DHT22;7666;50.920;4.628;2023-04-03T04:44:08;1.00;99.90
15131;DHT22;7666;50.920;4.628;2023-04-03T04:46:54;1.00;99.90
15131;DHT22;7666;50.920;4.628;2023-04-03T04:49:40;1.00;99.90
15131;DHT22;7666;50.920;4.628;2023-04-03T04:52:26;1.00;99.90
15131;DHT22;7666;50.920;4.628;2023-04-03T04:55:12;1.00;99.90
15131;DHT22;7666;50.920;4.628;2023-04-03T04:57:58;0.90;99.90
15131;DHT22;7666;50.920;4.628;2023-04-03T05:00:44;1.00;99.90
15131;DHT22;7666;50.920;4.628;2023-04-03T05:03:30;1.00;99.90
15131;DHT22;7666;50.920;4.628;2023-04-03T05:06:17;1.00;99.90
15131;DHT22;7666;50.920;4.628;2023-04-03T05:09:03;1.00;99.90
15131;DHT22;7666;50.920;4.628;2023-04-03T05:11:49;1.10;99.90
15131;DHT22;7666;50.920;4.628;2023-04-03T05:14:35;1.10;99.90
15131;DHT22;7666;50.920;4.628;2023-04-03T05:17:21;1.10;99.90
15131;DHT22;7666;50.920;4.628;2023-04-03T05:20:07;1.10;99.90
15131;DHT22;7666;50.920;4.628;2023-04-03T05:22:54;1.20;99.90
15131;DHT22;7666;50.920;4.628;2023-04-03T05:25:40;1.20;99.90
15131;DHT22;7666;50.920;4.628;2023-04-03T05:28:26;1.30;99.90
15131;DHT22;7666;50.920;4.628;2023-04-03T05:31:13;1.40;99.90
15131;DHT22;7666;50.920;4.628;2023-04-03T05:33:59;1.70;99.90
15131;DHT22;7666;50.920;4.628;2023-04-03T05:36:45;2.00;99.90
15131;DHT22;7666;50.920;4.628;2023-04-03T05:39:31;2.50;99.90
15131;DHT22;7666;50.920;4.628;2023-04-03T05:42:17;3.20;99.90
15131;DHT22;7666;50.920;4.628;2023-04-03T05:45:04;4.10;99.90
15131;DHT22;7666;50.920;4.628;2023-04-03T05:47:50;5.20;99.90
15131;DHT22;7666;50.920;4.628;2023-04-03T05:50:36;6.00;99.90
15131;DHT22;7666;50.920;4.628;2023-04-03T05:53:31;7.20;99.90
15131;DHT22;7666;50.920;4.628;2023-04-03T05:56:18;8.20;99.90
15131;DHT22;7666;50.920;4.628;2023-04-03T05:59:04;9.10;99.90
15131;DHT22;7666;50.920;4.628;2023-04-03T06:01:50;9.90;99.90
15131;DHT22;7666;50.920;4.628;2023-04-03T06:04:36;10.30;99.90
15131;DHT22;7666;50.920;4.628;2023-04-03T06:07:24;10.80;99.90
15131;DHT22;7666;50.920;4.628;2023-04-03T06:10:13;11.60;99.90
15131;DHT22;7666;50.920;4.628;2023-04-03T06:12:59;12.20;99.90
15131;DHT22;7666;50.920;4.628;2023-04-03T06:15:45;13.00;99.90
15131;DHT22;7666;50.920;4.628;2023-04-03T06:18:32;13.80;99.90
15131;DHT22;7666;50.920;4.628;2023-04-03T06:21:18;14.30;99.90
15131;DHT22;7666;50.920;4.628;2023-04-03T06:24:05;14.50;99.90
15131;DHT22;7666;50.920;4.628;2023-04-03T06:26:51;14.80;99.90
15131;DHT22;7666;50.920;4.628;2023-04-03T06:29:38;14.80;99.90
15131;DHT22;7666;50.920;4.628;2023-04-03T06:32:24;15.50;99.90
15131;DHT22;7666;50.920;4.628;2023-04-03T06:35:10;16.00;99.90
15131;DHT22;7666;50.920;4.628;2023-04-03T06:37:57;16.70;99.90
15131;DHT22;7666;50.920;4.628;2023-04-03T06:40:43;17.10;99.90
15131;DHT22;7666;50.920;4.628;2023-04-03T06:43:29;17.40;98.90
15131;DHT22;7666;50.920;4.628;2023-04-03T06:46:18;17.30;98.40
15131;DHT22;7666;50.920;4.628;2023-04-03T06:49:05;16.70;98.50
15131;DHT22;7666;50.920;4.628;2023-04-03T06:51:53;16.60;99.40
15131;DHT22;7666;50.920;4.628;2023-04-03T06:54:40;16.90;98.50
15131;DHT22;7666;50.920;4.628;2023-04-03T06:57:26;17.30;98.20
15131;DHT22;7666;50.920;4.628;2023-04-03T07:00:13;17.10;97.10
15131;DHT22;7666;50.920;4.628;2023-04-03T07:02:59;16.60;97.60
15131;DHT22;7666;50.920;4.628;2023-04-03T07:05:45;16.20;98.60
15131;DHT22;7666;50.920;4.628;2023-04-03T07:08:32;16.40;99.70
15131;DHT22;7666;50.920;4.628;2023-04-03T07:11:19;16.70;98.50
15131;DHT22;7666;50.920;4.628;2023-04-03T07:14:06;16.90;99.40
15131;DHT22;7666;50.920;4.628;2023-04-03T07:16:53;16.60;99.60
15131;DHT22;7666;50.920;4.628;2023-04-03T07:19:39;16.20;99.90
15131;DHT22;7666;50.920;4.628;2023-04-03T07:22:25;15.30;99.90
15131;DHT22;7666;50.920;4.628;2023-04-03T07:25:11;14.80;99.90
15131;DHT22;7666;50.920;4.628;2023-04-03T07:27:58;13.50;99.90
15131;DHT22;7666;50.920;4.628;2023-04-03T07:30:52;12.70;99.90
15131;DHT22;7666;50.920;4.628;2023-04-03T07:33:39;11.90;99.90
15131;DHT22;7666;50.920;4.628;2023-04-03T07:36:26;11.30;99.90
15131;DHT22;7666;50.920;4.628;2023-04-03T07:39:12;11.20;99.90
15131;DHT22;7666;50.920;4.628;2023-04-03T07:41:58;10.90;99.90
15131;DHT22;7666;50.920;4.628;2023-04-03T07:44:44;10.50;99.90
15131;DHT22;7666;50.920;4.628;2023-04-03T07:47:30;10.10;99.90
15131;DHT22;7666;50.920;4.628;2023-04-03T07:50:17;9.80;99.90
15131;DHT22;7666;50.920;4.628;2023-04-03T07:53:03;9.50;99.90
15131;DHT22;7666;50.920;4.628;2023-04-03T07:55:49;9.00;99.90
15131;DHT22;7666;50.920;4.628;2023-04-03T07:58:37;8.60;99.90
15131;DHT22;7666;50.920;4.628;2023-04-03T08:01:23;8.50;99.90
15131;DHT22;7666;50.920;4.628;2023-04-03T08:04:09;8.10;99.90
15131;DHT22;7666;50.920;4.628;2023-04-03T08:06:56;8.10;99.90
15131;DHT22;7666;50.920;4.628;2023-04-03T08:09:42;8.30;99.90
15131;DHT22;7666;50.920;4.628;2023-04-03T08:12:28;8.50;99.90
15131;DHT22;7666;50.920;4.628;2023-04-03T08:15:15;8.80;99.90
15131;DHT22;7666;50.920;4.628;2023-04-03T08:18:02;8.90;99.90
15131;DHT22;7666;50.920;4.628;2023-04-03T08:20:48;8.80;99.90
15131;DHT22;7666;50.920;4.628;2023-04-03T08:23:34;8.80;99.90
15131;DHT22;7666;50.920;4.628;2023-04-03T08:26:21;8.60;99.90
15131;DHT22;7666;50.920;4.628;2023-04-03T08:29:07;8.40;99.90
15131;DHT22;7666;50.920;4.628;2023-04-03T08:31:53;8.10;99.90
15131;DHT22;7666;50.920;4.628;2023-04-03T08:34:39;8.00;99.90
15131;DHT22;7666;50.920;4.628;2023-04-03T08:37:25;8.10;99.90
15131;DHT22;7666;50.920;4.628;2023-04-03T08:40:16;8.30;99.90
15131;DHT22;7666;50.920;4.628;2023-04-03T08:46:26;8.50;99.90
15131;DHT22;7666;50.920;4.628;2023-04-03T08:49:25;8.70;99.90
15131;DHT22;7666;50.920;4.628;2023-04-03T08:52:24;8.50;99.90
15131;DHT22;7666;50.920;4.628;2023-04-03T08:55:30;8.40;99.90
15131;DHT22;7666;50.920;4.628;2023-04-03T08:58:22;8.40;99.90
15131;DHT22;7666;50.920;4.628;2023-04-03T09:01:34;8.70;99.90
15131;DHT22;7666;50.920;4.628;2023-04-03T09:04:21;9.10;99.90
15131;DHT22;7666;50.920;4.628;2023-04-03T09:07:18;9.30;99.90
15131;DHT22;7666;50.920;4.628;2023-04-03T09:10:07;9.50;99.90
15131;DHT22;7666;50.920;4.628;2023-04-03T09:13:13;9.10;99.90
15131;DHT22;7666;50.920;4.628;2023-04-03T09:16:20;9.00;99.90
15131;DHT22;7666;50.920;4.628;2023-04-03T09:22:17;9.40;99.90
15131;DHT22;7666;50.920;4.628;2023-04-03T09:25:40;9.40;99.90
15131;DHT22;7666;50.920;4.628;2023-04-03T09:28:25;9.60;99.90
15131;DHT22;7666;50.920;4.628;2023-04-03T09:34:22;9.50;99.90
15131;DHT22;7666;50.920;4.628;2023-04-03T09:37:08;9.50;99.90
15131;DHT22;7666;50.920;4.628;2023-04-03T09:39:54;9.40;99.90
15131;DHT22;7666;50.920;4.628;2023-04-03T09:42:42;9.40;99.90
15131;DHT22;7666;50.920;4.628;2023-04-03T09:45:30;9.60;99.90
15131;DHT22;7666;50.920;4.628;2023-04-03T09:48:20;9.60;99.90
15131;DHT22;7666;50.920;4.628;2023-04-03T09:51:15;9.40;99.90
15131;DHT22;7666;50.920;4.628;2023-04-03T09:54:39;9.50;99.90
15131;DHT22;7666;50.920;4.628;2023-04-03T09:57:32;9.70;99.90
15131;DHT22;7666;50.920;4.628;2023-04-03T10:00:34;9.60;99.90
15131;DHT22;7666;50.920;4.628;2023-04-03T10:03:25;9.60;99.90
15131;DHT22;7666;50.920;4.628;2023-04-03T10:06:32;9.50;99.90
15131;DHT22;7666;50.920;4.628;2023-04-03T10:09:26;9.80;99.90
15131;DHT22;7666;50.920;4.628;2023-04-03T10:12:14;9.90;99.90
15131;DHT22;7666;50.920;4.628;2023-04-03T10:15:12;10.00;99.90
15131;DHT22;7666;50.920;4.628;2023-04-03T10:18:02;9.90;99.90
15131;DHT22;7666;50.920;4.628;2023-04-03T10:20:51;10.10;99.90
15131;DHT22;7666;50.920;4.628;2023-04-03T10:26:45;10.20;99.90
15131;DHT22;7666;50.920;4.628;2023-04-03T10:41:54;10.40;99.90
15131;DHT22;7666;50.920;4.628;2023-04-03T10:45:01;10.30;99.90
15131;DHT22;7666;50.920;4.628;2023-04-03T10:48:26;10.10;99.90
15131;DHT22;7666;50.920;4.628;2023-04-03T10:51:23;10.20;99.90
15131;DHT22;7666;50.920;4.628;2023-04-03T10:57:11;10.60;99.90
15131;DHT22;7666;50.920;4.628;2023-04-03T11:00:52;10.70;99.90
15131;DHT22;7666;50.920;4.628;2023-04-03T11:03:34;10.60;99.90
15131;DHT22;7666;50.920;4.628;2023-04-03T11:06:22;10.60;99.90
15131;DHT22;7666;50.920;4.628;2023-04-03T11:09:30;10.90;99.90
15131;DHT22;7666;50.920;4.628;2023-04-03T11:15:15;11.10;99.90
15131;DHT22;7666;50.920;4.628;2023-04-03T11:18:22;11.20;99.90
15131;DHT22;7666;50.920;4.628;2023-04-03T11:21:20;11.20;99.90
15131;DHT22;7666;50.920;4.628;2023-04-03T11:24:17;10.90;99.90
15131;DHT22;7666;50.920;4.628;2023-04-03T11:27:17;10.60;99.90
15131;DHT22;7666;50.920;4.628;2023-04-03T11:30:22;10.70;99.90
15131;DHT22;7666;50.920;4.628;2023-04-03T11:36:29;10.60;99.90
15131;DHT22;7666;50.920;4.628;2023-04-03T11:39:30;10.40;99.90
15131;DHT22;7666;50.920;4.628;2023-04-03T11:49:04;10.70;99.90
15131;DHT22;7666;50.920;4.628;2023-04-03T11:54:45;10.40;99.90
15131;DHT22;7666;50.920;4.628;2023-04-03T11:57:46;10.50;99.90
15131;DHT22;7666;50.920;4.628;2023-04-03T12:03:35;10.40;99.90
15131;DHT22;7666;50.920;4.628;2023-04-03T12:12:39;10.40;99.90
15131;DHT22;7666;50.920;4.628;2023-04-03T12:15:50;10.60;99.90
15131;DHT22;7666;50.920;4.628;2023-04-03T12:24:34;11.10;99.90
15131;DHT22;7666;50.920;4.628;2023-04-03T12:27:28;10.90;99.90
15131;DHT22;7666;50.920;4.628;2023-04-03T12:30:29;10.70;99.90
15131;DHT22;7666;50.920;4.628;2023-04-03T12:33:31;10.80;99.90
15131;DHT22;7666;50.920;4.628;2023-04-03T12:36:40;10.90;99.90
15131;DHT22;7666;50.920;4.628;2023-04-03T12:45:29;11.20;99.90
15131;DHT22;7666;50.920;4.628;2023-04-03T12:48:26;11.10;99.90
15131;DHT22;7666;50.920;4.628;2023-04-03T12:54:34;11.10;99.90
15131;DHT22;7666;50.920;4.628;2023-04-03T12:57:24;11.30;99.90
15131;DHT22;7666;50.920;4.628;2023-04-03T13:00:28;11.30;99.90
15131;DHT22;7666;50.920;4.628;2023-04-03T13:03:32;11.40;99.90
15131;DHT22;7666;50.920;4.628;2023-04-03T13:06:26;11.60;99.90
15131;DHT22;7666;50.920;4.628;2023-04-03T13:09:27;11.20;99.90
15131;DHT22;7666;50.920;4.628;2023-04-03T13:12:15;10.90;99.90
15131;DHT22;7666;50.920;4.628;2023-04-03T13:15:13;11.10;99.90
15131;DHT22;7666;50.920;4.628;2023-04-03T13:18:00;11.10;99.90
15131;DHT22;7666;50.920;4.628;2023-04-03T13:20:47;11.20;99.90
15131;DHT22;7666;50.920;4.628;2023-04-03T13:23:36;11.20;99.90
15131;DHT22;7666;50.920;4.628;2023-04-03T13:26:27;11.00;99.90
15131;DHT22;7666;50.920;4.628;2023-04-03T13:29:27;10.90;99.90
15131;DHT22;7666;50.920;4.628;2023-04-03T13:32:25;11.10;99.90
15131;DHT22;7666;50.920;4.628;2023-04-03T13:35:45;11.20;99.90
15131;DHT22;7666;50.920;4.628;2023-04-03T13:38:32;11.10;99.90
15131;DHT22;7666;50.920;4.628;2023-04-03T13:41:30;11.20;99.90
15131;DHT22;7666;50.920;4.628;2023-04-03T13:44:30;11.30;99.90
15131;DHT22;7666;50.920;4.628;2023-04-03T13:47:23;11.10;99.90
15131;DHT22;7666;50.920;4.628;2023-04-03T13:53:11;11.60;99.90
15131;DHT22;7666;50.920;4.628;2023-04-03T13:56:39;11.40;99.90
15131;DHT22;7666;50.920;4.628;2023-04-03T14:04:52;11.30;99.90
15131;DHT22;7666;50.920;4.628;2023-04-03T14:07:41;11.40;99.90
15131;DHT22;7666;50.920;4.628;2023-04-03T14:10:27;11.30;99.90
15131;DHT22;7666;50.920;4.628;2023-04-03T14:13:15;11.10;99.90
15131;DHT22;7666;50.920;4.628;2023-04-03T14:16:02;11.10;99.90
15131;DHT22;7666;50.920;4.628;2023-04-03T14:18:49;10.80;99.90
15131;DHT22;7666;50.920;4.628;2023-04-03T14:21:36;11.00;99.90
15131;DHT22;7666;50.920;4.628;2023-04-03T14:24:22;11.10;99.90
15131;DHT22;7666;50.920;4.628;2023-04-03T14:27:22;11.20;99.90
15131;DHT22;7666;50.920;4.628;2023-04-03T14:30:18;11.50;99.90
15131;DHT22;7666;50.920;4.628;2023-04-03T14:33:06;11.30;99.90
15131;DHT22;7666;50.920;4.628;2023-04-03T14:35:52;11.20;99.90
15131;DHT22;7666;50.920;4.628;2023-04-03T14:38:39;11.10;99.90
15131;DHT22;7666;50.920;4.628;2023-04-03T14:41:26;11.10;99.90
15131;DHT22;7666;50.920;4.628;2023-04-03T14:44:12;11.10;99.90
15131;DHT22;7666;50.920;4.628;2023-04-03T14:46:59;11.00;99.90
15131;DHT22;7666;50.920;4.628;2023-04-03T14:49:45;10.90;99.90
15131;DHT22;7666;50.920;4.628;2023-04-03T14:52:35;10.80;99.90
15131;DHT22;7666;50.920;4.628;2023-04-03T14:55:24;10.60;99.90
15131;DHT22;7666;50.920;4.628;2023-04-03T14:58:15;10.60;99.90
15131;DHT22;7666;50.920;4.628;2023-04-03T15:01:02;10.60;99.90
15131;DHT22;7666;50.920;4.628;2023-04-03T15:03:48;10.60;99.90
15131;DHT22;7666;50.920;4.628;2023-04-03T15:06:34;10.80;99.90
15131;DHT22;7666;50.920;4.628;2023-04-03T15:09:25;11.00;99.90
15131;DHT22;7666;50.920;4.628;2023-04-03T15:12:11;11.00;99.90
15131;DHT22;7666;50.920;4.628;2023-04-03T15:14:58;11.10;99.90
15131;DHT22;7666;50.920;4.628;2023-04-03T15:17:44;11.10;99.90
15131;DHT22;7666;50.920;4.628;2023-04-03T15:20:31;10.80;99.90
15131;DHT22;7666;50.920;4.628;2023-04-03T15:23:19;10.60;99.90
15131;DHT22;7666;50.920;4.628;2023-04-03T15:26:05;10.70;99.90
15131;DHT22;7666;50.920;4.628;2023-04-03T15:28:51;10.80;99.90
15131;DHT22;7666;50.920;4.628;2023-04-03T15:31:37;10.70;99.90
15131;DHT22;7666;50.920;4.628;2023-04-03T15:34:23;10.70;99.90
15131;DHT22;7666;50.920;4.628;2023-04-03T15:37:09;10.80;99.90
15131;DHT22;7666;50.920;4.628;2023-04-03T15:39:55;10.90;99.90
15131;DHT22;7666;50.920;4.628;2023-04-03T15:42:42;10.80;99.90
15131;DHT22;7666;50.920;4.628;2023-04-03T15:45:29;10.80;99.90
15131;DHT22;7666;50.920;4.628;2023-04-03T15:48:17;10.60;99.90
15131;DHT22;7666;50.920;4.628;2023-04-03T15:51:03;10.50;99.90
15131;DHT22;7666;50.920;4.628;2023-04-03T15:53:49;10.30;99.90
15131;DHT22;7666;50.920;4.628;2023-04-03T15:56:35;10.30;99.90
15131;DHT22;7666;50.920;4.628;2023-04-03T15:59:22;10.30;99.90
15131;DHT22;7666;50.920;4.628;2023-04-03T16:02:10;10.30;99.90
15131;DHT22;7666;50.920;4.628;2023-04-03T16:04:59;10.30;99.90
15131;DHT22;7666;50.920;4.628;2023-04-03T16:07:45;10.20;99.90
15131;DHT22;7666;50.920;4.628;2023-04-03T16:10:32;10.20;99.90
15131;DHT22;7666;50.920;4.628;2023-04-03T16:13:18;10.20;99.90
15131;DHT22;7666;50.920;4.628;2023-04-03T16:16:04;10.20;99.90
15131;DHT22;7666;50.920;4.628;2023-04-03T16:18:51;10.30;99.90
15131;DHT22;7666;50.920;4.628;2023-04-03T16:21:39;10.30;99.90
15131;DHT22;7666;50.920;4.628;2023-04-03T16:24:25;10.30;99.90
15131;DHT22;7666;50.920;4.628;2023-04-03T16:27:11;10.30;99.90
15131;DHT22;7666;50.920;4.628;2023-04-03T16:29:58;10.30;99.90
15131;DHT22;7666;50.920;4.628;2023-04-03T16:32:44;10.40;99.90
15131;DHT22;7666;50.920;4.628;2023-04-03T16:35:30;10.20;99.90
15131;DHT22;7666;50.920;4.628;2023-04-03T16:38:17;10.00;99.90
15131;DHT22;7666;50.920;4.628;2023-04-03T16:41:04;9.90;99.90
15131;DHT22;7666;50.920;4.628;2023-04-03T16:43:50;9.90;99.90
15131;DHT22;7666;50.920;4.628;2023-04-03T16:46:36;9.90;99.90
15131;DHT22;7666;50.920;4.628;2023-04-03T16:49:22;9.90;99.90
15131;DHT22;7666;50.920;4.628;2023-04-03T16:52:08;10.00;99.90
15131;DHT22;7666;50.920;4.628;2023-04-03T16:54:54;10.00;99.90
15131;DHT22;7666;50.920;4.628;2023-04-03T16:57:41;10.00;99.90
15131;DHT22;7666;50.920;4.628;2023-04-03T17:00:30;9.90;99.90
15131;DHT22;7666;50.920;4.628;2023-04-03T17:03:16;9.90;99.90
15131;DHT22;7666;50.920;4.628;2023-04-03T17:06:02;9.80;99.90
15131;DHT22;7666;50.920;4.628;2023-04-03T17:08:50;9.80;99.90
15131;DHT22;7666;50.920;4.628;2023-04-03T17:11:36;9.70;99.90
15131;DHT22;7666;50.920;4.628;2023-04-03T17:14:23;9.70;99.90
15131;DHT22;7666;50.920;4.628;2023-04-03T17:17:09;9.70;99.90
15131;DHT22;7666;50.920;4.628;2023-04-03T17:19:55;9.70;99.90
15131;DHT22;7666;50.920;4.628;2023-04-03T17:22:42;9.60;99.90
15131;DHT22;7666;50.920;4.628;2023-04-03T17:25:28;9.60;99.90
15131;DHT22;7666;50.920;4.628;2023-04-03T17:28:14;9.60;99.90
15131;DHT22;7666;50.920;4.628;2023-04-03T17:31:01;9.50;99.90
15131;DHT22;7666;50.920;4.628;2023-04-03T17:33:48;9.40;99.90
15131;DHT22;7666;50.920;4.628;2023-04-03T17:36:34;9.30;99.90
15131;DHT22;7666;50.920;4.628;2023-04-03T17:39:20;9.20;99.90
15131;DHT22;7666;50.920;4.628;2023-04-03T17:42:06;9.10;99.90
15131;DHT22;7666;50.920;4.628;2023-04-03T17:44:52;8.90;99.90
15131;DHT22;7666;50.920;4.628;2023-04-03T17:47:38;8.90;99.90
15131;DHT22;7666;50.920;4.628;2023-04-03T17:50:25;8.80;99.90
15131;DHT22;7666;50.920;4.628;2023-04-03T17:53:11;8.70;99.90
15131;DHT22;7666;50.920;4.628;2023-04-03T17:55:57;8.60;99.90
15131;DHT22;7666;50.920;4.628;2023-04-03T17:58:43;8.60;99.90
15131;DHT22;7666;50.920;4.628;2023-04-03T18:01:31;8.60;99.90
15131;DHT22;7666;50.920;4.628;2023-04-03T18:04:18;8.50;99.90
15131;DHT22;7666;50.920;4.628;2023-04-03T18:07:04;8.50;99.90
15131;DHT22;7666;50.920;4.628;2023-04-03T18:09:55;8.40;99.90
15131;DHT22;7666;50.920;4.628;2023-04-03T18:12:42;8.40;99.90
15131;DHT22;7666;50.920;4.628;2023-04-03T18:15:29;8.30;99.90
15131;DHT22;7666;50.920;4.628;2023-04-03T18:18:15;8.30;99.90
15131;DHT22;7666;50.920;4.628;2023-04-03T18:21:02;8.20;99.90
15131;DHT22;7666;50.920;4.628;2023-04-03T18:23:51;8.20;99.90
15131;DHT22;7666;50.920;4.628;2023-04-03T18:26:39;8.10;99.90
15131;DHT22;7666;50.920;4.628;2023-04-03T18:29:27;8.10;99.90
15131;DHT22;7666;50.920;4.628;2023-04-03T18:32:16;8.00;99.90
15131;DHT22;7666;50.920;4.628;2023-04-03T18:35:03;8.00;99.90
15131;DHT22;7666;50.920;4.628;2023-04-03T18:37:49;7.90;99.90
15131;DHT22;7666;50.920;4.628;2023-04-03T18:40:36;7.90;99.90
15131;DHT22;7666;50.920;4.628;2023-04-03T18:43:24;7.80;99.90
15131;DHT22;7666;50.920;4.628;2023-04-03T18:46:11;7.80;99.90
15131;DHT22;7666;50.920;4.628;2023-04-03T18:48:57;7.70;99.90
15131;DHT22;7666;50.920;4.628;2023-04-03T18:51:43;7.70;99.90
15131;DHT22;7666;50.920;4.628;2023-04-03T18:54:30;7.60;99.90
15131;DHT22;7666;50.920;4.628;2023-04-03T18:57:16;7.50;99.90
15131;DHT22;7666;50.920;4.628;2023-04-03T19:00:03;7.50;99.90
15131;DHT22;7666;50.920;4.628;2023-04-03T19:02:49;7.40;99.90
15131;DHT22;7666;50.920;4.628;2023-04-03T19:05:36;7.40;99.90
15131;DHT22;7666;50.920;4.628;2023-04-03T19:08:22;7.30;99.90
15131;DHT22;7666;50.920;4.628;2023-04-03T19:11:09;7.30;99.90
15131;DHT22;7666;50.920;4.628;2023-04-03T19:13:56;7.20;99.90
15131;DHT22;7666;50.920;4.628;2023-04-03T19:16:43;7.20;99.90
15131;DHT22;7666;50.920;4.628;2023-04-03T19:19:29;7.10;99.90
15131;DHT22;7666;50.920;4.628;2023-04-03T19:22:15;7.10;99.90
15131;DHT22;7666;50.920;4.628;2023-04-03T19:25:02;7.00;99.90
15131;DHT22;7666;50.920;4.628;2023-04-03T19:27:49;7.00;99.90
15131;DHT22;7666;50.920;4.628;2023-04-03T19:30:36;6.90;99.90
15131;DHT22;7666;50.920;4.628;2023-04-03T19:33:24;6.90;99.90
15131;DHT22;7666;50.920;4.628;2023-04-03T19:36:11;6.80;99.90